sensor_id;sensor_type;location;lat;lon;timestamp;P1;durP1;ratioP1;P2;durP2;ratioP2
72517;SDS011;60540;51.178;6.738;2023-02-01T00:01:28;15.10;;;7.45;;
72517;SDS011;60540;51.178;6.738;2023-02-01T00:03:53;12.88;;;6.35;;
72517;SDS011;60540;51.178;6.738;2023-02-01T00:06:19;14.38;;;6.53;;
72517;SDS011;60540;51.178;6.738;2023-02-01T00:08:45;15.05;;;7.30;;
72517;SDS011;60540;51.178;6.738;2023-02-01T00:11:11;17.98;;;7.60;;
72517;SDS011;60540;51.178;6.738;2023-02-01T00:13:38;17.17;;;7.00;;
72517;SDS011;60540;51.178;6.738;2023-02-01T00:16:06;14.80;;;6.40;;
72517;SDS011;60540;51.178;6.738;2023-02-01T00:18:41;13.30;;;6.40;;
72517;SDS011;60540;51.178;6.738;2023-02-01T00:21:09;12.77;;;6.80;;
72517;SDS011;60540;51.178;6.738;2023-02-01T00:23:35;18.40;;;6.45;;
72517;SDS011;60540;51.178;6.738;2023-02-01T00:26:03;16.35;;;5.85;;
72517;SDS011;60540;51.178;6.738;2023-02-01T00:28:30;18.50;;;6.40;;
72517;SDS011;60540;51.178;6.738;2023-02-01T00:30:59;12.10;;;5.90;;
72517;SDS011;60540;51.178;6.738;2023-02-01T00:33:25;11.45;;;6.22;;
72517;SDS011;60540;51.178;6.738;2023-02-01T00:35:55;11.48;;;5.93;;
72517;SDS011;60540;51.178;6.738;2023-02-01T00:38:22;12.50;;;4.72;;
72517;SDS011;60540;51.178;6.738;2023-02-01T00:40:48;12.80;;;5.75;;
72517;SDS011;60540;51.178;6.738;2023-02-01T00:43:13;7.60;;;4.03;;
72517;SDS011;60540;51.178;6.738;2023-02-01T00:45:39;14.73;;;5.45;;
72517;SDS011;60540;51.178;6.738;2023-02-01T00:48:05;10.05;;;4.63;;
72517;SDS011;60540;51.178;6.738;2023-02-01T00:50:31;13.93;;;5.35;;
72517;SDS011;60540;51.178;6.738;2023-02-01T00:52:56;12.25;;;4.82;;
72517;SDS011;60540;51.178;6.738;2023-02-01T00:55:22;11.90;;;4.75;;
72517;SDS011;60540;51.178;6.738;2023-02-01T00:57:48;11.48;;;4.13;;
72517;SDS011;60540;51.178;6.738;2023-02-01T01:00:14;10.60;;;4.50;;
72517;SDS011;60540;51.178;6.738;2023-02-01T01:02:41;12.43;;;3.80;;
72517;SDS011;60540;51.178;6.738;2023-02-01T01:05:07;7.78;;;3.53;;
72517;SDS011;60540;51.178;6.738;2023-02-01T01:07:33;8.93;;;3.95;;
72517;SDS011;60540;51.178;6.738;2023-02-01T01:09:58;10.45;;;3.58;;
72517;SDS011;60540;51.178;6.738;2023-02-01T01:12:24;8.57;;;3.50;;
72517;SDS011;60540;51.178;6.738;2023-02-01T01:14:50;10.50;;;3.10;;
72517;SDS011;60540;51.178;6.738;2023-02-01T01:17:16;9.38;;;3.22;;
72517;SDS011;60540;51.178;6.738;2023-02-01T01:19:41;7.95;;;3.47;;
72517;SDS011;60540;51.178;6.738;2023-02-01T01:22:07;9.10;;;2.92;;
72517;SDS011;60540;51.178;6.738;2023-02-01T01:24:33;8.30;;;2.75;;
72517;SDS011;60540;51.178;6.738;2023-02-01T01:26:59;14.45;;;2.90;;
72517;SDS011;60540;51.178;6.738;2023-02-01T01:29:24;9.85;;;3.03;;
72517;SDS011;60540;51.178;6.738;2023-02-01T01:31:50;8.80;;;3.30;;
72517;SDS011;60540;51.178;6.738;2023-02-01T01:34:16;4.95;;;2.13;;
72517;SDS011;60540;51.178;6.738;2023-02-01T01:36:41;12.40;;;3.47;;
72517;SDS011;60540;51.178;6.738;2023-02-01T01:39:07;9.65;;;3.10;;
72517;SDS011;60540;51.178;6.738;2023-02-01T01:41:33;16.52;;;3.42;;
72517;SDS011;60540;51.178;6.738;2023-02-01T01:44:00;9.80;;;3.72;;
72517;SDS011;60540;51.178;6.738;2023-02-01T01:46:32;6.22;;;2.42;;
72517;SDS011;60540;51.178;6.738;2023-02-01T01:49:12;8.55;;;2.78;;
72517;SDS011;60540;51.178;6.738;2023-02-01T01:51:44;7.60;;;2.63;;
72517;SDS011;60540;51.178;6.738;2023-02-01T01:54:23;6.85;;;2.83;;
72517;SDS011;60540;51.178;6.738;2023-02-01T01:56:51;14.00;;;3.25;;
72517;SDS011;60540;51.178;6.738;2023-02-01T01:59:22;5.80;;;2.45;;
72517;SDS011;60540;51.178;6.738;2023-02-01T02:01:47;11.93;;;2.25;;
72517;SDS011;60540;51.178;6.738;2023-02-01T02:04:13;9.02;;;2.85;;
72517;SDS011;60540;51.178;6.738;2023-02-01T02:09:05;7.53;;;2.25;;
72517;SDS011;60540;51.178;6.738;2023-02-01T02:11:31;13.82;;;2.50;;
72517;SDS011;60540;51.178;6.738;2023-02-01T02:13:57;8.23;;;2.70;;
72517;SDS011;60540;51.178;6.738;2023-02-01T02:31:00;7.80;;;2.28;;
72517;SDS011;60540;51.178;6.738;2023-02-01T02:33:39;6.90;;;2.42;;
72517;SDS011;60540;51.178;6.738;2023-02-01T02:36:17;7.28;;;1.83;;
72517;SDS011;60540;51.178;6.738;2023-02-01T02:39:06;9.40;;;2.70;;
72517;SDS011;60540;51.178;6.738;2023-02-01T02:41:42;7.30;;;2.40;;
72517;SDS011;60540;51.178;6.738;2023-02-01T02:47:36;10.32;;;2.97;;
72517;SDS011;60540;51.178;6.738;2023-02-01T02:52:57;7.68;;;2.50;;
72517;SDS011;60540;51.178;6.738;2023-02-01T02:55:45;10.77;;;2.80;;
72517;SDS011;60540;51.178;6.738;2023-02-01T02:58:21;8.48;;;2.55;;
72517;SDS011;60540;51.178;6.738;2023-02-01T03:01:05;7.28;;;2.65;;
72517;SDS011;60540;51.178;6.738;2023-02-01T03:03:50;8.27;;;2.35;;
72517;SDS011;60540;51.178;6.738;2023-02-01T03:06:33;8.98;;;2.13;;
72517;SDS011;60540;51.178;6.738;2023-02-01T03:08:59;10.10;;;2.80;;
72517;SDS011;60540;51.178;6.738;2023-02-01T03:11:27;6.93;;;2.70;;
72517;SDS011;60540;51.178;6.738;2023-02-01T03:14:13;10.05;;;3.10;;
72517;SDS011;60540;51.178;6.738;2023-02-01T03:16:43;8.43;;;3.10;;
72517;SDS011;60540;51.178;6.738;2023-02-01T03:19:21;10.02;;;3.33;;
72517;SDS011;60540;51.178;6.738;2023-02-01T03:24:30;12.18;;;2.78;;
72517;SDS011;60540;51.178;6.738;2023-02-01T03:27:01;10.95;;;3.45;;
72517;SDS011;60540;51.178;6.738;2023-02-01T03:29:33;10.02;;;2.85;;
72517;SDS011;60540;51.178;6.738;2023-02-01T03:32:11;8.07;;;2.70;;
72517;SDS011;60540;51.178;6.738;2023-02-01T03:34:37;9.20;;;2.95;;
72517;SDS011;60540;51.178;6.738;2023-02-01T03:37:04;7.30;;;3.25;;
72517;SDS011;60540;51.178;6.738;2023-02-01T03:39:33;10.68;;;3.17;;
72517;SDS011;60540;51.178;6.738;2023-02-01T03:42:03;11.65;;;2.85;;
72517;SDS011;60540;51.178;6.738;2023-02-01T03:47:18;9.20;;;3.03;;
72517;SDS011;60540;51.178;6.738;2023-02-01T03:49:47;7.28;;;2.45;;
72517;SDS011;60540;51.178;6.738;2023-02-01T03:52:20;6.88;;;2.42;;
72517;SDS011;60540;51.178;6.738;2023-02-01T03:54:49;7.93;;;2.17;;
72517;SDS011;60540;51.178;6.738;2023-02-01T03:57:16;10.25;;;2.63;;
72517;SDS011;60540;51.178;6.738;2023-02-01T03:59:47;9.13;;;2.45;;
72517;SDS011;60540;51.178;6.738;2023-02-01T04:02:13;12.50;;;3.13;;
72517;SDS011;60540;51.178;6.738;2023-02-01T04:04:39;9.25;;;2.35;;
72517;SDS011;60540;51.178;6.738;2023-02-01T04:07:04;10.55;;;2.65;;
72517;SDS011;60540;51.178;6.738;2023-02-01T04:09:30;9.10;;;3.05;;
72517;SDS011;60540;51.178;6.738;2023-02-01T04:11:56;10.95;;;2.83;;
72517;SDS011;60540;51.178;6.738;2023-02-01T04:14:22;9.43;;;3.55;;
72517;SDS011;60540;51.178;6.738;2023-02-01T04:16:47;14.77;;;2.70;;
72517;SDS011;60540;51.178;6.738;2023-02-01T04:19:13;9.52;;;3.13;;
72517;SDS011;60540;51.178;6.738;2023-02-01T04:21:39;11.32;;;2.42;;
72517;SDS011;60540;51.178;6.738;2023-02-01T04:24:04;14.68;;;3.20;;
72517;SDS011;60540;51.178;6.738;2023-02-01T04:26:30;6.55;;;2.65;;
72517;SDS011;60540;51.178;6.738;2023-02-01T04:28:56;12.43;;;2.92;;
72517;SDS011;60540;51.178;6.738;2023-02-01T04:31:22;10.68;;;2.85;;
72517;SDS011;60540;51.178;6.738;2023-02-01T04:33:51;9.40;;;2.50;;
72517;SDS011;60540;51.178;6.738;2023-02-01T04:36:18;10.95;;;2.70;;
72517;SDS011;60540;51.178;6.738;2023-02-01T04:38:48;12.23;;;2.80;;
72517;SDS011;60540;51.178;6.738;2023-02-01T04:41:14;9.85;;;2.88;;
72517;SDS011;60540;51.178;6.738;2023-02-01T04:43:41;8.25;;;2.47;;
72517;SDS011;60540;51.178;6.738;2023-02-01T04:46:06;10.65;;;3.00;;
72517;SDS011;60540;51.178;6.738;2023-02-01T04:48:32;10.50;;;2.90;;
72517;SDS011;60540;51.178;6.738;2023-02-01T04:50:58;12.63;;;2.70;;
72517;SDS011;60540;51.178;6.738;2023-02-01T04:53:24;12.80;;;2.50;;
72517;SDS011;60540;51.178;6.738;2023-02-01T04:55:49;8.27;;;2.40;;
72517;SDS011;60540;51.178;6.738;2023-02-01T04:58:15;12.05;;;2.90;;
72517;SDS011;60540;51.178;6.738;2023-02-01T05:00:41;14.05;;;2.80;;
72517;SDS011;60540;51.178;6.738;2023-02-01T05:03:07;11.88;;;2.58;;
72517;SDS011;60540;51.178;6.738;2023-02-01T05:05:32;10.90;;;2.38;;
72517;SDS011;60540;51.178;6.738;2023-02-01T05:07:58;11.77;;;3.00;;
72517;SDS011;60540;51.178;6.738;2023-02-01T05:10:24;7.72;;;2.15;;
72517;SDS011;60540;51.178;6.738;2023-02-01T05:12:50;12.90;;;2.83;;
72517;SDS011;60540;51.178;6.738;2023-02-01T05:15:34;7.80;;;3.10;;
72517;SDS011;60540;51.178;6.738;2023-02-01T05:17:59;10.50;;;2.55;;
72517;SDS011;60540;51.178;6.738;2023-02-01T05:20:25;13.40;;;3.28;;
72517;SDS011;60540;51.178;6.738;2023-02-01T05:22:51;8.55;;;3.00;;
72517;SDS011;60540;51.178;6.738;2023-02-01T05:25:16;14.25;;;3.35;;
72517;SDS011;60540;51.178;6.738;2023-02-01T05:27:42;7.43;;;2.78;;
72517;SDS011;60540;51.178;6.738;2023-02-01T05:30:08;6.97;;;2.35;;
72517;SDS011;60540;51.178;6.738;2023-02-01T05:32:34;6.28;;;2.10;;
72517;SDS011;60540;51.178;6.738;2023-02-01T05:35:00;13.93;;;2.97;;
72517;SDS011;60540;51.178;6.738;2023-02-01T05:37:26;8.80;;;2.15;;
72517;SDS011;60540;51.178;6.738;2023-02-01T05:39:52;11.25;;;2.67;;
72517;SDS011;60540;51.178;6.738;2023-02-01T05:42:18;9.10;;;2.63;;
72517;SDS011;60540;51.178;6.738;2023-02-01T05:44:43;10.80;;;2.60;;
72517;SDS011;60540;51.178;6.738;2023-02-01T05:47:09;10.68;;;2.35;;
72517;SDS011;60540;51.178;6.738;2023-02-01T05:49:35;10.05;;;3.78;;
72517;SDS011;60540;51.178;6.738;2023-02-01T05:52:01;8.15;;;2.38;;
72517;SDS011;60540;51.178;6.738;2023-02-01T05:54:27;8.93;;;2.75;;
72517;SDS011;60540;51.178;6.738;2023-02-01T05:56:53;12.07;;;2.80;;
72517;SDS011;60540;51.178;6.738;2023-02-01T05:59:18;15.93;;;2.58;;
72517;SDS011;60540;51.178;6.738;2023-02-01T06:01:44;8.93;;;2.08;;
72517;SDS011;60540;51.178;6.738;2023-02-01T06:04:10;14.35;;;2.70;;
72517;SDS011;60540;51.178;6.738;2023-02-01T06:06:35;14.38;;;2.75;;
72517;SDS011;60540;51.178;6.738;2023-02-01T06:09:02;10.25;;;2.83;;
72517;SDS011;60540;51.178;6.738;2023-02-01T06:11:28;11.45;;;2.70;;
72517;SDS011;60540;51.178;6.738;2023-02-01T06:13:54;12.63;;;2.92;;
72517;SDS011;60540;51.178;6.738;2023-02-01T06:16:21;9.73;;;2.53;;
72517;SDS011;60540;51.178;6.738;2023-02-01T06:18:47;10.57;;;2.50;;
72517;SDS011;60540;51.178;6.738;2023-02-01T06:21:13;10.90;;;2.60;;
72517;SDS011;60540;51.178;6.738;2023-02-01T06:23:40;14.20;;;3.60;;
72517;SDS011;60540;51.178;6.738;2023-02-01T06:26:07;12.18;;;2.78;;
72517;SDS011;60540;51.178;6.738;2023-02-01T06:28:33;11.80;;;2.58;;
72517;SDS011;60540;51.178;6.738;2023-02-01T06:31:02;9.55;;;2.83;;
72517;SDS011;60540;51.178;6.738;2023-02-01T06:33:32;8.18;;;2.92;;
72517;SDS011;60540;51.178;6.738;2023-02-01T06:35:59;15.02;;;2.65;;
72517;SDS011;60540;51.178;6.738;2023-02-01T06:38:26;8.35;;;2.42;;
72517;SDS011;60540;51.178;6.738;2023-02-01T06:40:52;8.85;;;2.22;;
72517;SDS011;60540;51.178;6.738;2023-02-01T06:43:19;11.25;;;2.28;;
72517;SDS011;60540;51.178;6.738;2023-02-01T06:45:45;8.63;;;2.58;;
72517;SDS011;60540;51.178;6.738;2023-02-01T06:48:10;8.10;;;2.05;;
72517;SDS011;60540;51.178;6.738;2023-02-01T06:50:36;10.13;;;2.50;;
72517;SDS011;60540;51.178;6.738;2023-02-01T06:53:01;9.77;;;2.40;;
72517;SDS011;60540;51.178;6.738;2023-02-01T06:55:27;9.48;;;2.80;;
72517;SDS011;60540;51.178;6.738;2023-02-01T06:57:54;7.65;;;2.78;;
72517;SDS011;60540;51.178;6.738;2023-02-01T07:00:20;9.02;;;2.67;;
72517;SDS011;60540;51.178;6.738;2023-02-01T07:02:49;8.32;;;2.42;;
72517;SDS011;60540;51.178;6.738;2023-02-01T07:05:15;9.02;;;2.20;;
72517;SDS011;60540;51.178;6.738;2023-02-01T07:07:41;12.82;;;2.97;;
72517;SDS011;60540;51.178;6.738;2023-02-01T07:10:07;9.20;;;3.05;;
72517;SDS011;60540;51.178;6.738;2023-02-01T07:12:33;11.20;;;3.42;;
72517;SDS011;60540;51.178;6.738;2023-02-01T07:14:59;9.80;;;2.58;;
72517;SDS011;60540;51.178;6.738;2023-02-01T07:17:26;8.55;;;2.67;;
72517;SDS011;60540;51.178;6.738;2023-02-01T07:19:54;11.07;;;2.95;;
72517;SDS011;60540;51.178;6.738;2023-02-01T07:22:21;8.50;;;2.50;;
72517;SDS011;60540;51.178;6.738;2023-02-01T07:24:46;19.98;;;3.42;;
72517;SDS011;60540;51.178;6.738;2023-02-01T07:27:12;10.80;;;2.33;;
72517;SDS011;60540;51.178;6.738;2023-02-01T07:29:38;10.07;;;3.13;;
72517;SDS011;60540;51.178;6.738;2023-02-01T07:32:04;11.65;;;2.38;;
72517;SDS011;60540;51.178;6.738;2023-02-01T07:34:30;11.00;;;3.13;;
72517;SDS011;60540;51.178;6.738;2023-02-01T07:36:56;14.13;;;2.65;;
72517;SDS011;60540;51.178;6.738;2023-02-01T07:39:22;17.95;;;3.28;;
72517;SDS011;60540;51.178;6.738;2023-02-01T07:41:47;10.93;;;2.90;;
72517;SDS011;60540;51.178;6.738;2023-02-01T07:44:13;13.32;;;3.13;;
72517;SDS011;60540;51.178;6.738;2023-02-01T07:46:39;11.27;;;2.47;;
72517;SDS011;60540;51.178;6.738;2023-02-01T07:49:08;7.70;;;2.08;;
72517;SDS011;60540;51.178;6.738;2023-02-01T07:51:34;7.07;;;2.47;;
72517;SDS011;60540;51.178;6.738;2023-02-01T07:54:00;15.68;;;3.10;;
72517;SDS011;60540;51.178;6.738;2023-02-01T07:56:25;10.15;;;3.33;;
72517;SDS011;60540;51.178;6.738;2023-02-01T07:58:52;5.53;;;2.20;;
72517;SDS011;60540;51.178;6.738;2023-02-01T08:01:20;9.20;;;2.55;;
72517;SDS011;60540;51.178;6.738;2023-02-01T08:03:50;12.40;;;2.80;;
72517;SDS011;60540;51.178;6.738;2023-02-01T08:06:18;12.98;;;2.75;;
72517;SDS011;60540;51.178;6.738;2023-02-01T08:08:47;11.35;;;2.70;;
72517;SDS011;60540;51.178;6.738;2023-02-01T08:11:14;9.32;;;2.40;;
72517;SDS011;60540;51.178;6.738;2023-02-01T08:13:41;9.43;;;3.08;;
72517;SDS011;60540;51.178;6.738;2023-02-01T08:16:07;9.07;;;2.38;;
72517;SDS011;60540;51.178;6.738;2023-02-01T08:18:34;12.05;;;3.15;;
72517;SDS011;60540;51.178;6.738;2023-02-01T08:21:20;8.68;;;2.63;;
72517;SDS011;60540;51.178;6.738;2023-02-01T08:23:47;15.02;;;3.05;;
72517;SDS011;60540;51.178;6.738;2023-02-01T08:26:14;10.93;;;2.80;;
72517;SDS011;60540;51.178;6.738;2023-02-01T08:28:49;11.95;;;2.50;;
72517;SDS011;60540;51.178;6.738;2023-02-01T08:31:20;12.55;;;2.50;;
72517;SDS011;60540;51.178;6.738;2023-02-01T08:36:22;7.22;;;2.28;;
72517;SDS011;60540;51.178;6.738;2023-02-01T08:38:49;10.57;;;3.55;;
72517;SDS011;60540;51.178;6.738;2023-02-01T08:41:16;7.05;;;2.40;;
72517;SDS011;60540;51.178;6.738;2023-02-01T08:43:43;9.75;;;3.22;;
72517;SDS011;60540;51.178;6.738;2023-02-01T08:46:09;11.00;;;3.45;;
72517;SDS011;60540;51.178;6.738;2023-02-01T08:48:36;12.80;;;2.70;;
72517;SDS011;60540;51.178;6.738;2023-02-01T08:51:02;11.02;;;2.75;;
72517;SDS011;60540;51.178;6.738;2023-02-01T08:53:29;11.85;;;2.83;;
72517;SDS011;60540;51.178;6.738;2023-02-01T08:55:55;14.40;;;3.13;;
72517;SDS011;60540;51.178;6.738;2023-02-01T08:58:21;11.57;;;2.95;;
72517;SDS011;60540;51.178;6.738;2023-02-01T09:00:47;12.77;;;3.25;;
72517;SDS011;60540;51.178;6.738;2023-02-01T09:03:14;9.38;;;2.78;;
72517;SDS011;60540;51.178;6.738;2023-02-01T09:05:40;5.88;;;2.50;;
72517;SDS011;60540;51.178;6.738;2023-02-01T09:08:06;15.68;;;3.20;;
72517;SDS011;60540;51.178;6.738;2023-02-01T09:10:31;13.82;;;2.63;;
72517;SDS011;60540;51.178;6.738;2023-02-01T09:12:58;13.55;;;2.70;;
72517;SDS011;60540;51.178;6.738;2023-02-01T09:15:23;11.13;;;2.72;;
72517;SDS011;60540;51.178;6.738;2023-02-01T09:17:49;10.07;;;2.47;;
72517;SDS011;60540;51.178;6.738;2023-02-01T09:20:15;11.80;;;3.38;;
72517;SDS011;60540;51.178;6.738;2023-02-01T09:22:41;8.27;;;2.55;;
72517;SDS011;60540;51.178;6.738;2023-02-01T09:25:07;13.65;;;3.22;;
72517;SDS011;60540;51.178;6.738;2023-02-01T09:27:33;11.43;;;3.10;;
72517;SDS011;60540;51.178;6.738;2023-02-01T09:29:59;10.70;;;2.72;;
72517;SDS011;60540;51.178;6.738;2023-02-01T09:32:25;11.05;;;2.85;;
72517;SDS011;60540;51.178;6.738;2023-02-01T09:34:51;8.90;;;3.25;;
72517;SDS011;60540;51.178;6.738;2023-02-01T09:37:18;9.70;;;2.80;;
72517;SDS011;60540;51.178;6.738;2023-02-01T09:39:43;7.82;;;2.75;;
72517;SDS011;60540;51.178;6.738;2023-02-01T09:44:53;10.38;;;2.60;;
72517;SDS011;60540;51.178;6.738;2023-02-01T09:47:43;13.77;;;3.40;;
72517;SDS011;60540;51.178;6.738;2023-02-01T09:50:14;14.20;;;2.60;;
72517;SDS011;60540;51.178;6.738;2023-02-01T09:52:47;10.32;;;3.05;;
72517;SDS011;60540;51.178;6.738;2023-02-01T09:55:19;16.95;;;4.05;;
72517;SDS011;60540;51.178;6.738;2023-02-01T09:57:58;8.52;;;3.83;;
72517;SDS011;60540;51.178;6.738;2023-02-01T10:00:29;8.50;;;2.72;;
72517;SDS011;60540;51.178;6.738;2023-02-01T10:02:57;9.45;;;2.75;;
72517;SDS011;60540;51.178;6.738;2023-02-01T10:08:23;13.73;;;3.17;;
72517;SDS011;60540;51.178;6.738;2023-02-01T10:10:56;10.55;;;3.00;;
72517;SDS011;60540;51.178;6.738;2023-02-01T10:19:26;9.35;;;2.85;;
72517;SDS011;60540;51.178;6.738;2023-02-01T10:22:09;8.57;;;3.03;;
72517;SDS011;60540;51.178;6.738;2023-02-01T10:24:40;12.98;;;3.67;;
72517;SDS011;60540;51.178;6.738;2023-02-01T10:27:25;9.02;;;2.72;;
72517;SDS011;60540;51.178;6.738;2023-02-01T10:29:55;10.43;;;2.92;;
72517;SDS011;60540;51.178;6.738;2023-02-01T10:32:33;10.52;;;3.20;;
72517;SDS011;60540;51.178;6.738;2023-02-01T10:35:01;15.27;;;3.25;;
72517;SDS011;60540;51.178;6.738;2023-02-01T10:37:31;8.40;;;2.67;;
72517;SDS011;60540;51.178;6.738;2023-02-01T10:42:57;11.13;;;3.00;;
72517;SDS011;60540;51.178;6.738;2023-02-01T10:45:26;13.38;;;2.97;;
72517;SDS011;60540;51.178;6.738;2023-02-01T10:47:53;11.65;;;2.58;;
72517;SDS011;60540;51.178;6.738;2023-02-01T10:50:25;13.80;;;3.45;;
72517;SDS011;60540;51.178;6.738;2023-02-01T10:53:12;11.55;;;2.97;;
72517;SDS011;60540;51.178;6.738;2023-02-01T10:58:25;10.07;;;2.60;;
72517;SDS011;60540;51.178;6.738;2023-02-01T11:00:58;10.38;;;2.40;;
72517;SDS011;60540;51.178;6.738;2023-02-01T11:03:41;11.95;;;2.88;;
72517;SDS011;60540;51.178;6.738;2023-02-01T11:06:19;9.45;;;2.67;;
72517;SDS011;60540;51.178;6.738;2023-02-01T11:08:55;14.45;;;3.03;;
72517;SDS011;60540;51.178;6.738;2023-02-01T11:11:26;8.60;;;2.75;;
72517;SDS011;60540;51.178;6.738;2023-02-01T11:13:56;8.63;;;3.40;;
72517;SDS011;60540;51.178;6.738;2023-02-01T11:16:30;7.75;;;2.55;;
72517;SDS011;60540;51.178;6.738;2023-02-01T11:21:25;10.75;;;2.95;;
72517;SDS011;60540;51.178;6.738;2023-02-01T11:23:51;12.23;;;2.60;;
72517;SDS011;60540;51.178;6.738;2023-02-01T11:26:26;11.70;;;2.78;;
72517;SDS011;60540;51.178;6.738;2023-02-01T11:28:54;8.90;;;2.92;;
72517;SDS011;60540;51.178;6.738;2023-02-01T11:31:23;9.07;;;3.40;;
72517;SDS011;60540;51.178;6.738;2023-02-01T11:33:53;13.23;;;3.10;;
72517;SDS011;60540;51.178;6.738;2023-02-01T11:36:22;10.30;;;3.08;;
72517;SDS011;60540;51.178;6.738;2023-02-01T11:38:53;9.77;;;2.55;;
72517;SDS011;60540;51.178;6.738;2023-02-01T11:41:22;11.48;;;2.83;;
72517;SDS011;60540;51.178;6.738;2023-02-01T11:43:54;9.52;;;2.60;;
72517;SDS011;60540;51.178;6.738;2023-02-01T11:46:30;8.32;;;2.15;;
72517;SDS011;60540;51.178;6.738;2023-02-01T11:49:13;8.98;;;2.95;;
72517;SDS011;60540;51.178;6.738;2023-02-01T11:51:49;13.75;;;3.10;;
72517;SDS011;60540;51.178;6.738;2023-02-01T12:00:02;9.63;;;2.40;;
72517;SDS011;60540;51.178;6.738;2023-02-01T12:08:26;8.48;;;3.10;;
72517;SDS011;60540;51.178;6.738;2023-02-01T12:26:37;13.32;;;5.88;;
72517;SDS011;60540;51.178;6.738;2023-02-01T12:32:01;9.63;;;3.45;;
72517;SDS011;60540;51.178;6.738;2023-02-01T12:34:35;10.95;;;3.25;;
72517;SDS011;60540;51.178;6.738;2023-02-01T12:37:14;12.85;;;4.03;;
72517;SDS011;60540;51.178;6.738;2023-02-01T12:43:05;6.75;;;2.85;;
72517;SDS011;60540;51.178;6.738;2023-02-01T12:45:46;11.07;;;2.72;;
72517;SDS011;60540;51.178;6.738;2023-02-01T12:48:35;10.23;;;3.00;;
72517;SDS011;60540;51.178;6.738;2023-02-01T12:51:26;9.77;;;3.45;;
72517;SDS011;60540;51.178;6.738;2023-02-01T12:53:55;12.05;;;2.85;;
72517;SDS011;60540;51.178;6.738;2023-02-01T12:58:56;11.90;;;2.70;;
72517;SDS011;60540;51.178;6.738;2023-02-01T13:01:27;9.90;;;2.78;;
72517;SDS011;60540;51.178;6.738;2023-02-01T13:04:10;7.13;;;2.42;;
72517;SDS011;60540;51.178;6.738;2023-02-01T13:06:45;8.85;;;2.83;;
72517;SDS011;60540;51.178;6.738;2023-02-01T13:09:21;9.32;;;2.75;;
72517;SDS011;60540;51.178;6.738;2023-02-01T13:11:48;8.43;;;2.17;;
72517;SDS011;60540;51.178;6.738;2023-02-01T13:16:58;9.18;;;1.98;;
72517;SDS011;60540;51.178;6.738;2023-02-01T13:22:30;9.85;;;1.95;;
72517;SDS011;60540;51.178;6.738;2023-02-01T13:25:02;12.55;;;2.33;;
72517;SDS011;60540;51.178;6.738;2023-02-01T13:27:30;11.25;;;2.67;;
72517;SDS011;60540;51.178;6.738;2023-02-01T13:29:57;10.50;;;2.75;;
72517;SDS011;60540;51.178;6.738;2023-02-01T13:44:26;9.85;;;2.33;;
72517;SDS011;60540;51.178;6.738;2023-02-01T13:47:08;6.15;;;2.88;;
72517;SDS011;60540;51.178;6.738;2023-02-01T13:49:40;6.53;;;1.70;;
72517;SDS011;60540;51.178;6.738;2023-02-01T13:52:06;6.80;;;2.38;;
72517;SDS011;60540;51.178;6.738;2023-02-01T13:55:45;8.27;;;2.30;;
72517;SDS011;60540;51.178;6.738;2023-02-01T13:58:29;9.32;;;2.63;;
72517;SDS011;60540;51.178;6.738;2023-02-01T14:03:45;6.10;;;2.20;;
72517;SDS011;60540;51.178;6.738;2023-02-01T14:06:32;11.88;;;2.10;;
72517;SDS011;60540;51.178;6.738;2023-02-01T14:09:10;11.07;;;2.08;;
72517;SDS011;60540;51.178;6.738;2023-02-01T14:11:43;9.68;;;2.65;;
72517;SDS011;60540;51.178;6.738;2023-02-01T14:14:37;6.50;;;2.03;;
72517;SDS011;60540;51.178;6.738;2023-02-01T14:19:28;8.07;;;1.98;;
72517;SDS011;60540;51.178;6.738;2023-02-01T14:21:57;10.25;;;1.98;;
72517;SDS011;60540;51.178;6.738;2023-02-01T14:24:43;10.93;;;2.08;;
72517;SDS011;60540;51.178;6.738;2023-02-01T14:27:18;9.57;;;2.10;;
72517;SDS011;60540;51.178;6.738;2023-02-01T14:29:53;8.95;;;2.15;;
72517;SDS011;60540;51.178;6.738;2023-02-01T14:32:39;7.45;;;1.88;;
72517;SDS011;60540;51.178;6.738;2023-02-01T14:35:19;9.13;;;2.15;;
72517;SDS011;60540;51.178;6.738;2023-02-01T14:37:46;7.05;;;2.20;;
72517;SDS011;60540;51.178;6.738;2023-02-01T14:50:25;10.07;;;2.33;;
72517;SDS011;60540;51.178;6.738;2023-02-01T14:55:44;5.13;;;1.90;;
72517;SDS011;60540;51.178;6.738;2023-02-01T14:58:43;11.88;;;2.53;;
72517;SDS011;60540;51.178;6.738;2023-02-01T15:01:29;12.05;;;2.13;;
72517;SDS011;60540;51.178;6.738;2023-02-01T15:09:31;5.85;;;2.03;;
72517;SDS011;60540;51.178;6.738;2023-02-01T15:14:39;11.95;;;2.20;;
72517;SDS011;60540;51.178;6.738;2023-02-01T15:17:18;4.95;;;1.92;;
72517;SDS011;60540;51.178;6.738;2023-02-01T15:19:56;7.75;;;1.90;;
72517;SDS011;60540;51.178;6.738;2023-02-01T15:22:23;6.53;;;2.50;;
72517;SDS011;60540;51.178;6.738;2023-02-01T15:24:52;10.93;;;2.08;;
72517;SDS011;60540;51.178;6.738;2023-02-01T15:27:23;7.28;;;1.80;;
72517;SDS011;60540;51.178;6.738;2023-02-01T15:29:49;6.65;;;2.13;;
72517;SDS011;60540;51.178;6.738;2023-02-01T15:32:48;6.70;;;1.95;;
72517;SDS011;60540;51.178;6.738;2023-02-01T15:43:27;7.13;;;1.80;;
72517;SDS011;60540;51.178;6.738;2023-02-01T15:45:58;6.15;;;1.85;;
72517;SDS011;60540;51.178;6.738;2023-02-01T15:48:25;7.25;;;2.45;;
72517;SDS011;60540;51.178;6.738;2023-02-01T15:50:52;10.05;;;2.90;;
72517;SDS011;60540;51.178;6.738;2023-02-01T15:53:21;12.95;;;2.45;;
72517;SDS011;60540;51.178;6.738;2023-02-01T15:55:52;11.85;;;2.55;;
72517;SDS011;60540;51.178;6.738;2023-02-01T15:58:20;8.68;;;2.20;;
72517;SDS011;60540;51.178;6.738;2023-02-01T16:00:50;6.65;;;1.73;;
72517;SDS011;60540;51.178;6.738;2023-02-01T16:06:01;9.52;;;2.38;;
72517;SDS011;60540;51.178;6.738;2023-02-01T16:08:29;8.98;;;2.58;;
72517;SDS011;60540;51.178;6.738;2023-02-01T16:11:00;5.38;;;2.00;;
72517;SDS011;60540;51.178;6.738;2023-02-01T16:13:40;8.18;;;2.65;;
72517;SDS011;60540;51.178;6.738;2023-02-01T16:16:07;8.07;;;2.85;;
72517;SDS011;60540;51.178;6.738;2023-02-01T16:18:41;8.23;;;1.70;;
72517;SDS011;60540;51.178;6.738;2023-02-01T16:21:08;8.82;;;2.40;;
72517;SDS011;60540;51.178;6.738;2023-02-01T16:23:36;9.13;;;2.58;;
72517;SDS011;60540;51.178;6.738;2023-02-01T16:26:03;7.28;;;2.45;;
72517;SDS011;60540;51.178;6.738;2023-02-01T16:28:29;8.23;;;2.45;;
72517;SDS011;60540;51.178;6.738;2023-02-01T16:30:54;9.75;;;2.75;;
72517;SDS011;60540;51.178;6.738;2023-02-01T16:33:20;6.38;;;1.73;;
72517;SDS011;60540;51.178;6.738;2023-02-01T16:35:49;10.82;;;2.40;;
72517;SDS011;60540;51.178;6.738;2023-02-01T16:38:17;9.25;;;2.95;;
72517;SDS011;60540;51.178;6.738;2023-02-01T16:40:46;10.35;;;2.35;;
72517;SDS011;60540;51.178;6.738;2023-02-01T16:43:16;8.98;;;2.63;;
72517;SDS011;60540;51.178;6.738;2023-02-01T16:45:43;9.02;;;2.10;;
72517;SDS011;60540;51.178;6.738;2023-02-01T16:48:16;7.95;;;2.30;;
72517;SDS011;60540;51.178;6.738;2023-02-01T16:50:46;8.75;;;2.38;;
72517;SDS011;60540;51.178;6.738;2023-02-01T16:53:17;8.75;;;2.90;;
72517;SDS011;60540;51.178;6.738;2023-02-01T16:55:43;7.15;;;2.38;;
72517;SDS011;60540;51.178;6.738;2023-02-01T16:58:09;8.57;;;2.13;;
72517;SDS011;60540;51.178;6.738;2023-02-01T17:00:35;11.55;;;2.40;;
72517;SDS011;60540;51.178;6.738;2023-02-01T17:05:28;8.90;;;2.30;;
72517;SDS011;60540;51.178;6.738;2023-02-01T17:07:55;8.73;;;2.20;;
72517;SDS011;60540;51.178;6.738;2023-02-01T17:10:23;9.82;;;2.20;;
72517;SDS011;60540;51.178;6.738;2023-02-01T17:12:50;8.50;;;2.40;;
72517;SDS011;60540;51.178;6.738;2023-02-01T17:15:16;10.60;;;1.67;;
72517;SDS011;60540;51.178;6.738;2023-02-01T17:17:41;8.25;;;2.10;;
72517;SDS011;60540;51.178;6.738;2023-02-01T17:20:14;8.48;;;2.25;;